KCKN/CKN METAR and TAF weather

Enter ICAO airport designator
Station Type Date Time Source
KCKN METAR 2020/01/22 15:35 UTC NOAA

KCKN 221535Z AUTO 00000KT 7SM CLR M12/M13 A2975 RMK AO2


Station Type Date Time Source
KCKN Decoded METAR 2020/01/22 15:35 UTC NOAA

Crookston Municipal Field, MN, United States (KCKN) 47-51N 096-37W
Jan 22, 2020 - 10:35 AM EST / 2020.01.22 1535 UTC
Wind: Calm:0
Visibility: 7 mile(s):0
Sky conditions: clear
Temperature: 10 F (-12 C)
Dew Point: 8 F (-13 C)
Relative Humidity: 92%
Pressure (altimeter): 29.75 in. Hg (1007 hPa)
ob: KCKN 221535Z AUTO 00000KT 7SM CLR M12/M13 A2975 RMK AO2
cycle: 15

Station Type Date Time Source
KCKN TAF UTC NOAA

Error!

Example: see airport list